Time;durP1;ratioP1;P1;durP2;ratioP2;P2;SDS_P1;SDS_P2;PMS_P1;PMS_P2;Temp;Humidity;BMP_temperature;BMP_pressure;BME280_temperature;BME280_humidity;BME280_pressure;Samples;Min_cycle;Max_cycle;Signal;HPM_P1;HPM_P2
2024/03/19 00:02:18;;;;;;;;;23.00;19.00;;;;;-143.90;100.00;76669.28;4888403;28;101976;-73
2024/03/19 00:04:44;;;;;;;;;31.00;23.00;;;;;-143.90;100.00;76677.56;4878008;28;107283;-73
2024/03/19 00:07:10;;;;;;;;;28.67;22.67;;;;;-143.90;100.00;76671.38;4879483;28;102272;-74
2024/03/19 00:09:36;;;;;;;;;28.00;22.00;;;;;-143.90;100.00;76689.97;4886004;28;102449;-73
2024/03/19 00:12:02;;;;;;;;;25.33;21.00;;;;;-143.90;100.00;76683.78;4895392;28;102654;-72
2024/03/19 00:14:27;;;;;;;;;31.00;24.00;;;;;-143.90;100.00;76689.97;4874693;28;103102;-74
2024/03/19 00:16:53;;;;;;;;;27.00;23.00;;;;;-143.90;100.00;76685.84;4887099;28;102294;-73
2024/03/19 00:19:18;;;;;;;;;32.33;26.00;;;;;-143.90;100.00;76704.47;4878659;28;105192;-73
2024/03/19 00:21:44;;;;;;;;;32.33;23.67;;;;;-143.90;100.00;76687.91;4867034;28;106589;-75
2024/03/19 00:24:10;;;;;;;;;26.67;23.67;;;;;-143.90;100.00;76685.84;4872861;28;105027;-74
2024/03/19 00:26:36;;;;;;;;;28.67;24.00;;;;;-143.90;100.00;76685.84;4879491;28;102424;-73
2024/03/19 00:29:02;;;;;;;;;23.33;16.67;;;;;-143.90;100.00;76679.63;4879431;28;102518;-72
2024/03/19 00:31:28;;;;;;;;;28.67;23.00;;;;;-143.90;100.00;76677.56;4871864;28;102710;-74
2024/03/19 00:33:53;;;;;;;;;26.00;23.00;;;;;-143.90;100.00;76685.84;4872387;28;104518;-73
2024/03/19 00:36:20;;;;;;;;;24.00;20.00;;;;;-143.90;100.00;76683.78;4879162;28;102652;-74
2024/03/19 00:38:46;;;;;;;;;20.33;15.67;;;;;-143.90;100.00;76669.28;4882785;28;102213;-74
2024/03/19 00:41:11;;;;;;;;;37.67;28.33;;;;;-143.90;100.00;76677.56;4882524;28;102638;-74
2024/03/19 00:43:37;;;;;;;;;23.33;21.33;;;;;-143.90;100.00;76687.91;4874042;28;104640;-74
2024/03/19 00:46:03;;;;;;;;;37.67;28.33;;;;;-143.90;100.00;76696.19;4896673;28;102170;-73
2024/03/19 00:48:29;;;;;;;;;28.67;26.33;;;;;-143.90;100.00;76683.78;4884136;28;102627;-73
2024/03/19 00:50:55;;;;;;;;;33.33;25.33;;;;;-143.90;100.00;76694.13;4899468;28;102076;-75
2024/03/19 00:53:21;;;;;;;;;26.00;23.33;;;;;-143.90;100.00;76679.63;4888679;28;104463;-74
2024/03/19 00:55:46;;;;;;;;;28.67;22.00;;;;;-143.90;100.00;76687.91;4881788;28;102323;-72
2024/03/19 00:58:14;;;;;;;;;36.67;30.00;;;;;-143.90;100.00;76702.38;4898576;28;102659;-73
2024/03/19 01:00:40;;;;;;;;;29.33;23.00;;;;;-143.90;100.00;76694.13;4873531;28;104867;-74
2024/03/19 01:03:08;;;;;;;;;28.33;21.67;;;;;-143.90;100.00;76692.03;4888699;28;104768;-74
2024/03/19 01:05:35;;;;;;;;;29.33;22.33;;;;;-143.90;100.00;76689.97;4865974;28;105259;-73
2024/03/19 01:08:01;;;;;;;;;22.33;19.00;;;;;-143.90;100.00;76685.84;4879812;28;102180;-73
2024/03/19 01:10:27;;;;;;;;;16.33;11.33;;;;;-143.90;100.00;76675.50;4879385;28;103386;-73
2024/03/19 01:12:52;;;;;;;;;19.00;15.00;;;;;-143.90;100.00;76671.38;4881952;28;104969;-74
2024/03/19 01:15:18;;;;;;;;;20.67;19.00;;;;;-143.90;100.00;76667.22;4897459;28;102541;-75
2024/03/19 01:17:44;;;;;;;;;15.67;12.00;;;;;-143.90;100.00;76667.22;4874417;28;102455;-74
2024/03/19 01:20:12;;;;;;;;;17.33;15.00;;;;;-143.90;100.00;76669.28;4884336;28;105058;-73
2024/03/19 01:22:39;;;;;;;;;26.00;15.33;;;;;-143.90;100.00;76681.72;4878333;28;104614;-74
2024/03/19 01:25:06;;;;;;;;;22.67;20.33;;;;;-143.90;100.00;76683.78;4874956;28;102106;-74
2024/03/19 01:27:34;;;;;;;;;23.33;20.67;;;;;-143.90;100.00;76681.72;4865154;28;102273;-74
2024/03/19 01:30:00;;;;;;;;;23.00;20.00;;;;;-143.90;100.00;76685.84;4879094;28;102604;-74
2024/03/19 01:32:26;;;;;;;;;21.67;15.33;;;;;-143.90;100.00;76669.28;4896831;28;104930;-74
2024/03/19 01:34:51;;;;;;;;;19.00;16.67;;;;;-143.90;100.00;76671.38;4884998;28;102586;-72
2024/03/19 01:37:17;;;;;;;;;21.00;19.00;;;;;-143.90;100.00;76685.84;4888892;28;102565;-74
2024/03/19 01:39:42;;;;;;;;;20.67;19.67;;;;;-143.90;100.00;76689.97;4884262;28;102366;-75
2024/03/19 01:42:08;;;;;;;;;25.00;21.33;;;;;-143.90;100.00;76685.84;4887708;28;105055;-74
2024/03/19 01:44:34;;;;;;;;;20.67;17.00;;;;;-143.90;100.00;76679.63;4903662;28;102039;-74
2024/03/19 01:46:59;;;;;;;;;23.00;17.00;;;;;-143.90;100.00;76681.72;4884737;28;105519;-74
2024/03/19 01:49:25;;;;;;;;;13.67;12.67;;;;;-143.90;100.00;76677.56;4859053;28;102026;-73
2024/03/19 01:51:53;;;;;;;;;16.33;15.33;;;;;-143.90;100.00;76673.44;4896719;28;104575;-74
2024/03/19 01:54:19;;;;;;;;;22.33;19.00;;;;;-143.90;100.00;76677.56;4881179;28;102502;-73
2024/03/19 01:56:45;;;;;;;;;23.67;23.00;;;;;-143.90;100.00;76685.84;4873702;28;102199;-74
2024/03/19 01:59:10;;;;;;;;;29.33;27.00;;;;;-143.90;100.00;76702.38;4886832;28;102430;-74
2024/03/19 02:01:36;;;;;;;;;28.67;24.00;;;;;-143.90;100.00;76694.13;4869633;28;104525;-74
2024/03/19 02:04:02;;;;;;;;;36.33;27.00;;;;;-143.90;100.00;76698.25;4883951;28;102535;-73
2024/03/19 02:06:28;;;;;;;;;25.33;21.33;;;;;-143.90;100.00;76702.38;4882712;28;102303;-73
2024/03/19 02:08:58;;;;;;;;;30.67;23.33;;;;;-143.90;100.00;76710.66;4880907;28;102260;-73
2024/03/19 02:11:23;;;;;;;;;25.67;23.00;;;;;-143.90;100.00;76704.47;4870706;28;104796;-72
2024/03/19 02:13:50;;;;;;;;;30.00;21.00;;;;;-143.90;100.00;76692.03;4894401;28;102507;-74
2024/03/19 02:16:15;;;;;;;;;28.33;24.00;;;;;-143.90;100.00;76706.53;4872284;28;104121;-73
2024/03/19 02:18:41;;;;;;;;;28.67;23.33;;;;;-143.90;100.00;76712.72;4862540;28;102519;-75
2024/03/19 02:21:07;;;;;;;;;30.00;23.33;;;;;-143.90;100.00;76702.38;4888453;28;104541;-75
2024/03/19 02:23:32;;;;;;;;;27.00;23.00;;;;;-143.90;100.00;76702.38;4883935;28;102130;-74
2024/03/19 02:25:58;;;;;;;;;32.67;27.67;;;;;-143.90;100.00;76723.06;4896777;28;101767;-74
2024/03/19 02:28:23;;;;;;;;;26.00;20.00;;;;;-143.90;100.00;76714.78;4885925;28;102172;-75
2024/03/19 02:30:49;;;;;;;;;27.67;21.67;;;;;-143.90;100.00;76706.53;4901174;28;104472;-73
2024/03/19 02:33:14;;;;;;;;;29.00;24.33;;;;;-143.90;100.00;76710.66;4897361;28;105389;-74
2024/03/19 02:35:40;;;;;;;;;28.33;21.33;;;;;-143.90;100.00;76708.59;4890422;28;102512;-73
2024/03/19 02:38:06;;;;;;;;;28.00;24.00;;;;;-143.90;100.00;76716.88;4905057;28;102362;-74
2024/03/19 02:40:31;;;;;;;;;30.00;23.67;;;;;-143.90;100.00;76712.72;4881920;28;104469;-73
2024/03/19 02:42:57;;;;;;;;;32.67;22.00;;;;;-143.90;100.00;76716.88;4898844;28;102331;-73
2024/03/19 02:45:23;;;;;;;;;28.00;19.33;;;;;-143.90;100.00;76706.53;4875224;28;102868;-73
2024/03/19 02:47:49;;;;;;;;;18.33;16.67;;;;;-143.90;100.00;76710.66;4900603;28;102138;-74
2024/03/19 02:50:15;;;;;;;;;26.67;20.00;;;;;-143.90;100.00;76710.66;4898310;28;104685;-75
2024/03/19 02:52:40;;;;;;;;;22.67;19.00;;;;;-143.90;100.00;76710.66;4883515;28;105131;-74
2024/03/19 02:55:06;;;;;;;;;20.67;20.00;;;;;-143.90;100.00;76704.47;4904272;28;102508;-75
2024/03/19 02:57:32;;;;;;;;;26.00;19.67;;;;;-143.90;100.00;76706.53;4876366;28;102375;-74
2024/03/19 02:59:57;;;;;;;;;21.33;19.67;;;;;-143.90;100.00;76712.72;4878109;28;104546;-74
2024/03/19 03:02:23;;;;;;;;;21.67;20.00;;;;;-143.90;100.00;76721.00;4899282;28;102369;-73
2024/03/19 03:04:49;;;;;;;;;26.67;19.00;;;;;-143.90;100.00;76710.66;4899604;28;101978;-74
2024/03/19 03:07:14;;;;;;;;;25.33;20.00;;;;;-143.90;100.00;76718.94;4902817;28;102180;-74
2024/03/19 03:09:40;;;;;;;;;22.67;17.33;;;;;-143.90;100.00;76714.78;4864008;28;104439;-74
2024/03/19 03:12:05;;;;;;;;;24.00;19.33;;;;;-143.90;100.00;76721.00;4897640;28;102178;-73
2024/03/19 03:14:31;;;;;;;;;23.67;19.33;;;;;-143.90;100.00;76723.06;4898663;28;102379;-75
2024/03/19 03:16:56;;;;;;;;;20.00;16.33;;;;;-143.90;100.00;76727.22;4875106;28;102881;-75
2024/03/19 03:19:22;;;;;;;;;16.67;16.33;;;;;-143.90;100.00;76729.28;4875566;28;102775;-73
2024/03/19 03:21:48;;;;;;;;;27.00;20.00;;;;;-143.90;100.00;76735.47;4885148;28;102073;-73
2024/03/19 03:24:13;;;;;;;;;21.00;19.33;;;;;-143.90;100.00;76737.53;4887683;28;102207;-74
2024/03/19 03:26:39;;;;;;;;;26.67;22.00;;;;;-143.90;100.00;76743.75;4902391;28;102490;-74
2024/03/19 03:29:05;;;;;;;;;30.00;23.00;;;;;-143.90;100.00;76747.88;4887600;28;104534;-74
2024/03/19 03:31:31;;;;;;;;;34.00;24.00;;;;;-143.90;100.00;76739.63;4886786;28;103420;-74
2024/03/19 03:33:56;;;;;;;;;26.00;20.00;;;;;-143.90;100.00;76733.41;4891164;28;102371;-73
2024/03/19 03:36:23;;;;;;;;;31.00;23.00;;;;;-143.90;100.00;76737.53;4886684;28;102471;-72
2024/03/19 03:38:49;;;;;;;;;33.33;27.00;;;;;-143.90;100.00;76743.75;4888046;28;104621;-75
2024/03/19 03:41:14;;;;;;;;;20.00;19.33;;;;;-143.90;100.00;76739.63;4873332;28;104764;-74
2024/03/19 03:43:40;;;;;;;;;26.67;19.33;;;;;-143.90;100.00;76737.53;4873108;28;105294;-73
2024/03/19 03:46:06;;;;;;;;;26.33;22.00;;;;;-143.90;100.00;76731.34;4880685;28;102094;-73
2024/03/19 03:48:31;;;;;;;;;28.00;20.67;;;;;-143.90;100.00;76741.69;4887357;28;104903;-74
2024/03/19 03:50:57;;;;;;;;;26.00;20.67;;;;;-143.90;100.00;76745.81;4899592;28;102371;-74
2024/03/19 03:53:22;;;;;;;;;24.67;20.67;;;;;-143.90;100.00;76735.47;4876359;28;102218;-73
2024/03/19 03:55:48;;;;;;;;;27.67;24.33;;;;;-143.90;100.00;76743.75;4896010;28;102367;-74
2024/03/19 03:58:14;;;;;;;;;26.67;23.00;;;;;-143.90;100.00;76743.75;4878564;28;104939;-75
2024/03/19 04:00:43;;;;;;;;;16.33;16.00;;;;;-143.90;100.00;76737.53;4879965;28;102497;-74
2024/03/19 04:03:09;;;;;;;;;20.00;17.00;;;;;-143.90;100.00;76729.28;4899359;28;102185;-72
2024/03/19 04:05:35;;;;;;;;;19.00;12.67;;;;;-143.90;100.00;76725.13;4869876;28;102811;-74
2024/03/19 04:08:00;;;;;;;;;17.67;15.00;;;;;-143.90;100.00;76723.06;4883745;28;104612;-74
2024/03/19 04:10:26;;;;;;;;;21.33;17.67;;;;;-143.90;100.00;76723.06;4876647;28;103279;-74
2024/03/19 04:12:51;;;;;;;;;18.33;13.00;;;;;-143.90;100.00;76733.41;4881636;28;102358;-74
2024/03/19 04:15:17;;;;;;;;;29.33;26.00;;;;;-143.90;100.00;76741.69;4880936;28;102134;-73
2024/03/19 04:17:43;;;;;;;;;35.00;26.33;;;;;-143.90;100.00;76743.75;4877187;28;104575;-74
2024/03/19 04:20:10;;;;;;;;;32.00;23.00;;;;;-143.90;100.00;76737.53;4898916;28;102986;-74
2024/03/19 04:22:36;;;;;;;;;30.33;26.00;;;;;-143.90;100.00;76749.97;4885422;28;102454;-73
2024/03/19 04:25:07;;;;;;;;;28.67;21.33;;;;;-143.90;100.00;76743.75;4890848;28;102528;-74
2024/03/19 04:27:33;;;;;;;;;29.33;21.33;;;;;-143.90;100.00;76747.88;4861775;28;104761;-72
2024/03/19 04:29:59;;;;;;;;;43.00;30.67;;;;;-143.90;100.00;76754.09;4877478;28;102582;-73
2024/03/19 04:32:26;;;;;;;;;35.00;26.00;;;;;-143.90;100.00;76749.97;4881494;28;102459;-73
2024/03/19 04:34:51;;;;;;;;;36.00;28.00;;;;;-143.90;100.00;76752.03;4888578;28;102079;-73
2024/03/19 04:37:17;;;;;;;;;35.00;27.00;;;;;-143.90;100.00;76758.22;4888230;28;108867;-73
2024/03/19 04:39:42;;;;;;;;;34.33;26.33;;;;;-143.90;100.00;76768.56;4887446;28;102000;-74
2024/03/19 04:42:15;;;;;;;;;35.33;31.00;;;;;-143.90;100.00;76762.38;4897275;28;102089;-75
2024/03/19 04:44:41;;;;;;;;;29.33;24.67;;;;;-143.90;100.00;76764.44;4896390;28;102389;-74
2024/03/19 04:47:06;;;;;;;;;26.67;15.33;;;;;-143.90;100.00;76760.28;4876106;28;104578;-74
2024/03/19 04:49:32;;;;;;;;;26.67;23.00;;;;;-143.90;100.00;76764.44;4862788;28;102585;-74
2024/03/19 04:51:58;;;;;;;;;33.67;27.67;;;;;-143.90;100.00;76770.63;4892293;28;102314;-74
2024/03/19 04:54:23;;;;;;;;;27.00;22.33;;;;;-143.90;100.00;76774.78;4889219;28;102591;-73
2024/03/19 04:56:49;;;;;;;;;39.33;28.00;;;;;-143.90;100.00;76780.97;4882729;28;105287;-73
2024/03/19 04:59:15;;;;;;;;;39.00;30.00;;;;;-143.90;100.00;76780.97;4899796;28;102455;-73
2024/03/19 05:01:40;;;;;;;;;30.67;23.67;;;;;-143.90;100.00;76776.84;4872078;28;104730;-73
2024/03/19 05:04:06;;;;;;;;;28.00;25.67;;;;;-143.90;100.00;76768.56;4881071;28;102377;-74
2024/03/19 05:06:32;;;;;;;;;32.33;27.67;;;;;-143.90;100.00;76783.03;4882806;28;104538;-74
2024/03/19 05:08:57;;;;;;;;;40.00;33.33;;;;;-143.90;100.00;76783.03;4871558;28;102214;-74
2024/03/19 05:11:23;;;;;;;;;46.67;34.00;;;;;-143.90;100.00;76780.97;4878536;28;102434;-75
2024/03/19 05:13:49;;;;;;;;;40.67;30.00;;;;;-143.90;100.00;76785.13;4885357;28;102378;-74
2024/03/19 05:16:15;;;;;;;;;41.67;32.00;;;;;-143.90;100.00;76785.13;4885880;28;104469;-74
2024/03/19 05:18:40;;;;;;;;;33.00;22.00;;;;;-143.90;100.00;76776.84;4880522;28;102019;-75
2024/03/19 05:21:06;;;;;;;;;29.67;25.67;;;;;-143.90;100.00;76780.97;4871251;28;102269;-73
2024/03/19 05:23:31;;;;;;;;;38.00;26.33;;;;;-143.90;100.00;76785.13;4867361;28;102012;-75
2024/03/19 05:25:57;;;;;;;;;40.00;32.00;;;;;-143.90;100.00;76780.97;4877420;28;104524;-74
2024/03/19 05:28:22;;;;;;;;;31.67;27.67;;;;;-143.90;100.00;76778.91;4878020;28;102343;-73
2024/03/19 05:30:48;;;;;;;;;34.00;24.67;;;;;-143.90;100.00;76776.84;4874217;28;102382;-74
2024/03/19 05:33:14;;;;;;;;;31.00;24.33;;;;;-143.90;100.00;76768.56;4881606;28;102224;-75
2024/03/19 05:35:41;;;;;;;;;28.00;23.67;;;;;-143.90;100.00;76772.72;4867352;28;103305;-74
2024/03/19 05:38:07;;;;;;;;;34.67;25.33;;;;;-143.90;100.00;76772.72;4898935;28;103700;-73
2024/03/19 05:40:32;;;;;;;;;29.00;21.00;;;;;-143.90;100.00;76768.56;4898153;28;102292;-74
2024/03/19 05:42:58;;;;;;;;;30.67;25.33;;;;;-143.90;100.00;76768.56;4877409;28;102303;-74
2024/03/19 05:45:23;;;;;;;;;32.00;27.67;;;;;-143.90;100.00;76776.84;4875417;28;104494;-74
2024/03/19 05:47:49;;;;;;;;;45.33;32.00;;;;;-143.90;100.00;76793.38;4885516;28;102394;-74
2024/03/19 05:50:15;;;;;;;;;39.33;31.67;;;;;-143.90;100.00;76780.97;4882762;28;102818;-73
2024/03/19 05:52:41;;;;;;;;;36.67;28.00;;;;;-143.90;100.00;76778.91;4883435;28;103739;-74
2024/03/19 05:55:07;;;;;;;;;30.33;23.00;;;;;-143.90;100.00;76758.22;4878189;28;104645;-74
2024/03/19 05:57:33;;;;;;;;;10.00;0.00;;;;;-143.90;100.00;76764.44;4882341;28;104141;-73
2024/03/19 05:59:59;;;;;;;;;27.67;22.67;;;;;-143.90;100.00;76756.16;4880556;28;101982;-73
2024/03/19 06:02:24;;;;;;;;;39.33;31.67;;;;;-143.90;100.00;76764.44;4874523;28;107647;-72
2024/03/19 06:04:52;;;;;;;;;29.33;19.67;;;;;-143.90;100.00;76749.97;4875459;28;105508;-73
2024/03/19 06:07:18;;;;;;;;;24.00;18.33;;;;;-143.90;100.00;76735.47;4898902;28;102191;-73
2024/03/19 06:09:43;;;;;;;;;25.67;20.67;;;;;-143.90;100.00;76731.34;4864569;28;102055;-73
2024/03/19 06:12:13;;;;;;;;;30.33;22.00;;;;;-143.90;100.00;76723.06;4901840;28;102560;-74
2024/03/19 06:14:39;;;;;;;;;22.67;15.33;;;;;-143.90;100.00;76718.94;4883771;28;104501;-74
2024/03/19 06:17:06;;;;;;;;;22.67;20.67;;;;;-143.90;100.00;76723.06;4880441;28;103891;-72
2024/03/19 06:19:33;;;;;;;;;34.33;24.67;;;;;-143.90;100.00;76725.13;4872834;28;102492;-74
2024/03/19 06:21:58;;;;;;;;;32.33;28.00;;;;;-143.90;100.00;76727.22;4894402;28;102495;-74
2024/03/19 06:24:24;;;;;;;;;32.67;26.33;;;;;-143.90;100.00;76731.34;4885493;28;104380;-74
2024/03/19 06:26:49;;;;;;;;;37.00;28.00;;;;;-143.90;100.00;76731.34;4884032;28;102564;-74
2024/03/19 06:29:15;;;;;;;;;38.33;28.67;;;;;-143.90;100.00;76721.00;4876998;28;103145;-74
2024/03/19 06:31:41;;;;;;;;;32.00;26.33;;;;;-143.90;100.00;76714.78;4891880;28;102446;-74
2024/03/19 06:34:07;;;;;;;;;42.67;29.33;;;;;-143.90;100.00;76727.22;4877336;28;103370;-74
2024/03/19 06:36:32;;;;;;;;;35.00;25.00;;;;;-143.90;100.00;76727.22;4885673;28;102384;-74
2024/03/19 06:38:58;;;;;;;;;43.33;28.33;;;;;-143.90;100.00;76714.78;4886400;28;102348;-74
2024/03/19 06:41:24;;;;;;;;;29.67;26.00;;;;;-143.90;100.00;76698.25;4883981;28;101919;-74
2024/03/19 06:43:49;;;;;;;;;36.00;27.00;;;;;-143.90;100.00;76718.94;4864477;28;108017;-75
2024/03/19 06:46:15;;;;;;;;;33.67;25.67;;;;;-143.90;100.00;76708.59;4887349;28;104862;-74
2024/03/19 06:48:43;;;;;;;;;36.33;28.67;;;;;-143.90;100.00;76714.78;4896055;28;105518;-74
2024/03/19 06:51:09;;;;;;;;;30.67;24.67;;;;;-143.90;100.00;76692.03;4903009;28;102875;-73
2024/03/19 06:53:34;;;;;;;;;25.33;24.33;;;;;-143.90;100.00;76677.56;4867875;28;104839;-73
2024/03/19 06:56:00;;;;;;;;;30.67;28.00;;;;;-143.90;100.00;76669.28;4883401;28;102425;-73
2024/03/19 06:58:27;;;;;;;;;34.33;29.33;;;;;-143.90;100.00;76673.44;4901029;28;102092;-73
2024/03/19 07:00:52;;;;;;;;;31.67;26.00;;;;;-143.90;100.00;76654.81;4889444;28;102872;-75
2024/03/19 07:03:18;;;;;;;;;21.25;18.00;;;;;-143.90;100.00;76634.13;4901868;28;104585;-75
2024/03/19 07:05:45;;;;;;;;;25.50;20.50;;;;;-143.90;100.00;76619.66;4864201;28;102430;-75
2024/03/19 07:08:12;;;;;;;;;18.50;14.25;;;;;-143.90;100.00;76594.84;4867635;28;102475;-75
2024/03/19 07:10:38;;;;;;;;;20.75;18.25;;;;;-143.90;100.00;76572.09;4867899;28;102357;-74
2024/03/19 07:13:04;;;;;;;;;17.50;15.00;;;;;-143.90;100.00;76553.47;4885823;28;104614;-74
2024/03/19 07:15:30;;;;;;;;;22.25;19.00;;;;;-143.90;100.00;76545.22;4863040;28;102333;-73
2024/03/19 07:17:56;;;;;;;;;20.75;18.00;;;;;-143.90;100.00;76524.53;4883481;28;103984;-74
2024/03/19 07:20:23;;;;;;;;;25.00;16.75;;;;;-143.90;100.00;76528.66;4887020;28;102459;-74
2024/03/19 07:22:49;;;;;;;;;18.25;16.00;;;;;-143.90;100.00;76507.97;4878255;28;104742;-74
2024/03/19 07:25:15;;;;;;;;;16.50;14.75;;;;;-143.90;100.00;76520.38;4879747;28;102372;-74
2024/03/19 07:27:42;;;;;;;;;23.25;19.50;;;;;-143.90;100.00;76522.47;4865322;28;104541;-73
2024/03/19 07:30:12;;;;;;;;;20.50;18.50;;;;;-143.90;100.00;76510.06;4885801;28;102379;-73
2024/03/19 07:32:39;;;;;;;;;22.50;18.25;;;;;-143.90;100.00;76479.03;4877722;28;104586;-75
2024/03/19 07:35:07;;;;;;;;;23.75;20.75;;;;;-143.90;100.00;76479.03;4877712;28;107992;-75
2024/03/19 07:37:36;;;;;;;;;26.50;21.00;;;;;-143.90;100.00;76458.34;4855846;28;102062;-73
2024/03/19 07:40:08;;;;;;;;;24.50;21.00;;;;;-143.90;100.00;76489.38;4887227;28;102545;-74
2024/03/19 07:42:34;;;;;;;;;25.75;20.00;;;;;-143.90;100.00;76474.91;4875536;28;104636;-75
2024/03/19 07:45:00;;;;;;;;;25.00;22.25;;;;;-143.90;100.00;76487.31;4878337;28;102092;-75
2024/03/19 07:47:25;;;;;;;;;31.25;26.25;;;;;-143.90;100.00;76514.19;4881691;28;101954;-73
2024/03/19 07:49:51;;;;;;;;;28.75;24.75;;;;;-143.90;100.00;76466.63;4896729;28;102922;-75
2024/03/19 07:52:16;;;;;;;;;31.00;23.75;;;;;-143.90;100.00;76441.81;4887309;28;104577;-75
2024/03/19 07:54:42;;;;;;;;;29.75;24.00;;;;;-143.90;100.00;76458.34;4902016;28;101860;-74
2024/03/19 07:57:08;;;;;;;;;26.25;22.50;;;;;-143.90;100.00;76417.00;4872270;28;101826;-75
2024/03/19 07:59:35;;;;;;;;;29.50;25.25;;;;;-143.90;100.00;76431.47;4876231;28;102177;-74
2024/03/19 08:02:04;;;;;;;;;30.25;24.75;;;;;-143.90;100.00;76497.63;4876744;28;104873;-73
2024/03/19 08:04:31;;;;;;;;;28.75;25.75;;;;;-143.90;100.00;76489.38;4898697;28;102290;-75
2024/03/19 08:06:56;;;;;;;;;24.75;22.00;;;;;-143.90;100.00;76495.56;4883529;28;102609;-74
2024/03/19 08:09:22;;;;;;;;;23.00;20.25;;;;;-143.90;100.00;76485.22;4893529;28;102091;-73
2024/03/19 08:11:48;;;;;;;;;28.00;22.50;;;;;-143.90;100.00;76458.34;4868791;28;105001;-73
2024/03/19 08:14:14;;;;;;;;;30.00;22.00;;;;;-143.90;100.00;76464.56;4884474;28;102421;-73
2024/03/19 08:16:39;;;;;;;;;31.00;26.50;;;;;-143.90;100.00;76448.00;4884426;28;104705;-74
2024/03/19 08:19:08;;;;;;;;;27.25;18.00;;;;;-143.90;100.00;76412.84;4900294;28;102382;-75
2024/03/19 08:21:35;;;;;;;;;22.00;20.50;;;;;-143.90;100.00;76402.50;4901810;28;103164;-74
2024/03/19 08:24:02;;;;;;;;;23.00;17.25;;;;;-143.90;100.00;76400.44;4890293;28;102346;-74
2024/03/19 08:26:28;;;;;;;;;21.25;18.50;;;;;-143.90;100.00;76406.66;4893776;28;101967;-74
2024/03/19 08:28:54;;;;;;;;;23.25;17.50;;;;;-143.90;100.00;76392.16;4887686;28;102406;-74
2024/03/19 08:31:20;;;;;;;;;24.50;15.75;;;;;-143.90;100.00;76373.56;4879402;28;104488;-74
2024/03/19 08:33:47;;;;;;;;;20.25;16.75;;;;;-143.90;100.00;76379.75;4881513;28;102100;-75
2024/03/19 08:36:13;;;;;;;;;21.75;20.50;;;;;-143.90;100.00;76398.38;4833810;28;102547;-74
2024/03/19 08:38:41;;;;;;;;;29.25;24.75;;;;;-143.90;100.00;76454.22;4869769;28;102479;-74
2024/03/19 08:41:07;;;;;;;;;27.75;26.00;;;;;-143.90;100.00;76512.13;4897480;28;104650;-74
2024/03/19 08:43:32;;;;;;;;;23.25;17.75;;;;;-143.90;100.00;76505.91;4890916;28;102251;-75
2024/03/19 08:45:58;;;;;;;;;24.00;20.00;;;;;-143.90;100.00;76491.44;4884786;28;102434;-74
2024/03/19 08:48:24;;;;;;;;;23.50;18.00;;;;;-143.90;100.00;76474.91;4889109;28;102168;-74
2024/03/19 08:50:49;;;;;;;;;22.25;18.00;;;;;-143.90;100.00;76501.78;4902154;28;104422;-75
2024/03/19 08:53:15;;;;;;;;;29.25;21.75;;;;;-143.90;100.00;76505.91;4878560;28;102215;-74
2024/03/19 08:55:42;;;;;;;;;22.00;21.00;;;;;-143.90;100.00;76520.38;4875459;28;104685;-74
2024/03/19 08:58:09;;;;;;;;;25.50;24.00;;;;;-143.90;100.00;76551.41;4883755;28;107013;-75
2024/03/19 09:00:38;;;;;;;;;21.75;20.50;;;;;-143.90;100.00;76534.88;4879449;28;104577;-74
2024/03/19 09:03:07;;;;;;;;;23.25;20.25;;;;;-143.90;100.00;76526.59;4873362;28;102469;-75
2024/03/19 09:05:33;;;;;;;;;24.75;20.50;;;;;-143.90;100.00;76520.38;4883050;28;102085;-74
2024/03/19 09:07:59;;;;;;;;;21.50;19.00;;;;;-143.90;100.00;76516.25;4882352;28;102113;-74
2024/03/19 09:10:24;;;;;;;;;25.50;22.50;;;;;-143.90;100.00;76524.53;4900896;28;104420;-75
2024/03/19 09:12:50;;;;;;;;;26.75;20.50;;;;;-143.90;100.00;76493.50;4881926;28;102966;-76
2024/03/19 09:15:15;;;;;;;;;20.25;17.25;;;;;-143.90;100.00;76456.28;4863233;28;102709;-74
2024/03/19 09:17:41;;;;;;;;;23.00;21.00;;;;;-143.90;69.29;76448.00;4865766;28;102687;-74
2024/03/19 09:20:07;;;;;;;;;21.00;17.00;;;;;-143.90;67.20;76443.88;4877641;28;104680;-76
2024/03/19 09:22:34;;;;;;;;;20.25;17.00;;;;;-143.90;68.56;76458.34;4885581;28;101789;-76
2024/03/19 09:25:00;;;;;;;;;24.50;18.75;;;;;-143.90;67.80;76483.16;4880431;28;102379;-75
2024/03/19 09:27:26;;;;;;;;;20.00;16.00;;;;;-143.90;68.65;76425.25;4881513;28;102678;-74
2024/03/19 09:29:52;;;;;;;;;19.25;18.00;;;;;-143.90;65.84;76433.53;4876033;28;107445;-75
2024/03/19 09:32:19;;;;;;;;;19.75;17.50;;;;;-143.90;66.85;76417.00;4875793;28;102067;-75
2024/03/19 09:34:44;;;;;;;;;19.00;14.75;;;;;-143.90;64.23;76390.09;4888634;28;102456;-75
2024/03/19 09:37:10;;;;;;;;;13.75;13.00;;;;;-143.90;62.91;76350.81;4887003;28;102015;-74
2024/03/19 09:39:36;;;;;;;;;13.00;12.00;;;;;-143.90;59.97;76350.81;4867816;28;102669;-73
2024/03/19 09:42:10;;;;;;;;;15.00;13.25;;;;;-143.90;63.70;76342.53;4883247;28;102295;-74
2024/03/19 09:44:36;;;;;;;;;19.25;14.50;;;;;-143.90;58.19;76334.25;4869096;28;102381;-73
2024/03/19 09:47:06;;;;;;;;;12.25;10.75;;;;;-143.90;56.19;76307.38;4902218;28;102415;-74
2024/03/19 09:49:32;;;;;;;;;9.00;9.00;;;;;-143.90;55.90;76297.03;4872156;28;106600;-73
2024/03/19 09:52:03;;;;;;;;;13.75;10.00;;;;;-143.90;56.04;76288.78;4901877;28;102438;-74
2024/03/19 09:54:29;;;;;;;;;10.00;8.00;;;;;-143.90;54.90;76288.78;4878665;28;101960;-75
2024/03/19 09:56:57;;;;;;;;;8.25;7.00;;;;;-143.90;53.07;76326.00;4886374;28;102391;-74
2024/03/19 09:59:25;;;;;;;;;7.25;6.00;;;;;-143.90;55.43;76259.81;4880381;28;109261;-75
2024/03/19 10:01:53;;;;;;;;;12.75;9.00;;;;;-143.90;57.58;76247.41;4868839;28;102934;-74
2024/03/19 10:04:19;;;;;;;;;16.00;13.75;;;;;-143.90;57.67;76259.81;4883700;28;102440;-74
2024/03/19 10:06:46;;;;;;;;;17.50;14.50;;;;;-143.90;58.55;76266.03;4886341;28;102563;-74
2024/03/19 10:09:12;;;;;;;;;16.00;12.25;;;;;-143.90;54.55;76319.78;4891678;28;104571;-76
2024/03/19 10:11:37;;;;;;;;;9.00;9.00;;;;;-143.90;57.62;76330.13;4868455;28;105248;-74
2024/03/19 10:14:03;;;;;;;;;13.25;9.00;;;;;-143.90;56.30;76330.13;4882961;28;104346;-75
2024/03/19 10:16:32;;;;;;;;;9.75;9.00;;;;;-143.90;55.23;76290.84;4885054;28;102839;-74
2024/03/19 10:18:58;;;;;;;;;8.50;6.00;;;;;-143.90;55.26;76255.69;4884498;28;102818;-73
2024/03/19 10:21:26;;;;;;;;;10.00;8.50;;;;;-143.90;52.69;76272.22;4862353;28;101848;-76
2024/03/19 10:23:52;;;;;;;;;10.75;9.00;;;;;-143.90;51.75;76301.19;4874698;28;102325;-75
2024/03/19 10:26:18;;;;;;;;;10.75;8.50;;;;;-143.90;52.91;76317.72;4903158;28;102372;-74
2024/03/19 10:28:45;;;;;;;;;10.75;8.00;;;;;-143.90;52.73;76371.50;4883640;28;104682;-75
2024/03/19 10:31:11;;;;;;;;;13.00;11.50;;;;;-143.90;52.88;76400.44;4896315;28;102717;-77
2024/03/19 10:33:37;;;;;;;;;14.75;12.25;;;;;-143.90;52.83;76371.50;4867836;28;102375;-74
2024/03/19 10:36:03;;;;;;;;;12.75;10.25;;;;;-143.90;51.96;76365.28;4883690;28;102076;-75
2024/03/19 10:38:29;;;;;;;;;17.00;11.25;;;;;-143.90;51.70;76367.34;4876166;28;104552;-73
2024/03/19 10:40:58;;;;;;;;;8.00;7.00;;;;;-143.90;51.15;76359.09;4882462;28;102198;-74
2024/03/19 10:43:25;;;;;;;;;13.25;11.50;;;;;-143.90;50.18;76307.38;4877855;28;102124;-75